createdAt,value
2019-01-16T00:02:42.596Z,10.93
2019-01-16T00:05:32.562Z,8.13
2019-01-16T00:08:21.727Z,10.63
2019-01-16T00:11:08.864Z,10.30
2019-01-16T00:13:58.194Z,9.67
2019-01-16T00:16:47.317Z,8.57
2019-01-16T00:19:36.453Z,8.90
2019-01-16T00:22:25.916Z,9.43
2019-01-16T00:25:15.202Z,11.30
2019-01-16T00:28:04.259Z,8.33
2019-01-16T00:30:53.170Z,7.03
2019-01-16T00:33:42.339Z,9.47
2019-01-16T00:36:31.525Z,9.03
2019-01-16T00:39:20.820Z,7.87
2019-01-16T00:42:10.221Z,7.83
2019-01-16T00:44:59.995Z,7.50
2019-01-16T00:47:49.430Z,6.73
2019-01-16T00:50:39.721Z,6.55
2019-01-16T00:53:29.034Z,7.45
2019-01-16T00:56:18.056Z,6.20
2019-01-16T00:59:07.282Z,4.73
2019-01-16T01:01:56.346Z,7.77
2019-01-16T01:04:45.598Z,4.53
2019-01-16T01:07:34.677Z,4.27
2019-01-16T01:10:25.268Z,4.03
2019-01-16T01:13:14.171Z,3.93
2019-01-16T01:16:03.369Z,4.28
2019-01-16T01:18:52.485Z,5.57
2019-01-16T01:21:41.562Z,4.27
2019-01-16T01:24:30.640Z,3.90
2019-01-16T01:27:20.044Z,5.83
2019-01-16T01:30:09.132Z,4.57
2019-01-16T01:32:58.163Z,6.73
2019-01-16T01:35:47.108Z,4.63
2019-01-16T01:38:36.345Z,5.97
2019-01-16T01:41:25.278Z,4.93
2019-01-16T01:44:14.329Z,5.10
2019-01-16T01:47:03.360Z,5.77
2019-01-16T01:49:52.483Z,8.23
2019-01-16T01:52:41.504Z,4.47
2019-01-16T01:55:30.991Z,4.27
2019-01-16T01:58:07.592Z,4.70
2019-01-16T02:00:57.099Z,4.10
2019-01-16T02:03:46.425Z,4.77
2019-01-16T02:06:35.430Z,3.80
2019-01-16T02:12:29.485Z,4.13
2019-01-16T02:15:18.322Z,3.90
2019-01-16T02:18:07.349Z,4.23
2019-01-16T02:20:56.442Z,3.10
2019-01-16T02:23:45.464Z,3.13
2019-01-16T02:26:35.539Z,4.03
2019-01-16T02:29:24.722Z,2.97
2019-01-16T02:32:31.215Z,2.60
2019-01-16T02:35:20.372Z,2.60
2019-01-16T02:38:09.783Z,3.53
2019-01-16T02:41:10.925Z,2.50
2019-01-16T02:44:14.097Z,2.73
2019-01-16T02:46:55.866Z,2.40
2019-01-16T02:50:04.328Z,2.87
2019-01-16T02:52:43.820Z,3.80
2019-01-16T02:55:33.342Z,2.83
2019-01-16T02:58:22.995Z,2.50
2019-01-16T03:01:12.289Z,2.60
2019-01-16T03:04:02.477Z,2.33
2019-01-16T03:06:51.555Z,2.67
2019-01-16T03:09:40.533Z,2.50
2019-01-16T03:12:29.577Z,2.83
2019-01-16T03:15:18.637Z,2.67
2019-01-16T03:18:07.459Z,3.23
2019-01-16T03:20:56.922Z,3.20
2019-01-16T03:23:46.174Z,4.10
2019-01-16T03:26:26.899Z,3.13
2019-01-16T03:29:15.966Z,3.12
2019-01-16T03:32:05.217Z,3.03
2019-01-16T03:34:55.675Z,3.83
2019-01-16T03:37:46.190Z,5.20
2019-01-16T03:40:35.668Z,3.20
2019-01-16T03:43:25.462Z,3.10
2019-01-16T03:46:14.482Z,6.17
2019-01-16T03:49:03.563Z,3.57
2019-01-16T03:51:52.666Z,4.00
2019-01-16T03:54:42.007Z,4.83
2019-01-16T03:57:31.334Z,3.62
2019-01-16T04:00:20.423Z,3.50
2019-01-16T04:03:09.339Z,3.63
2019-01-16T04:05:58.941Z,5.90
2019-01-16T04:08:47.982Z,5.35
2019-01-16T04:11:37.236Z,4.87
2019-01-16T04:14:26.301Z,4.23
2019-01-16T04:17:15.238Z,3.77
2019-01-16T04:20:05.352Z,3.83
2019-01-16T04:22:44.930Z,3.37
2019-01-16T04:25:34.173Z,4.87
2019-01-16T04:28:23.919Z,4.50
2019-01-16T04:31:13.248Z,7.20
2019-01-16T04:34:02.597Z,5.47
2019-01-16T04:36:52.092Z,4.57
2019-01-16T04:39:42.568Z,6.78
2019-01-16T04:42:31.598Z,3.50
2019-01-16T04:47:58.051Z,8.37
2019-01-16T04:50:47.842Z,6.57
2019-01-16T04:53:38.518Z,6.10
2019-01-16T04:56:27.588Z,6.37
2019-01-16T04:59:16.530Z,5.53
2019-01-16T05:02:05.670Z,6.80
2019-01-16T05:04:54.834Z,7.20
2019-01-16T05:07:44.256Z,5.72
2019-01-16T05:10:33.194Z,6.50
2019-01-16T05:13:22.491Z,6.83
2019-01-16T05:16:11.471Z,8.73
2019-01-16T05:19:00.626Z,7.50
2019-01-16T05:21:49.820Z,8.90
2019-01-16T05:24:39.203Z,8.53
2019-01-16T05:27:28.442Z,7.57
2019-01-16T05:30:17.828Z,9.63
2019-01-16T05:33:07.047Z,10.38
2019-01-16T05:35:57.527Z,9.55
2019-01-16T05:38:46.484Z,12.57
2019-01-16T05:41:35.618Z,11.73
2019-01-16T05:44:24.620Z,10.47
2019-01-16T05:47:13.511Z,13.60
2019-01-16T05:50:02.424Z,11.50
2019-01-16T05:52:51.384Z,15.00
2019-01-16T05:55:40.262Z,14.87
2019-01-16T05:58:29.711Z,18.17
2019-01-16T06:01:19.110Z,17.00
2019-01-16T06:04:08.479Z,14.50
2019-01-16T06:06:57.900Z,14.07
2019-01-16T06:09:47.664Z,14.90
2019-01-16T06:12:37.004Z,14.05
2019-01-16T06:15:26.864Z,12.47
2019-01-16T06:18:16.506Z,13.22
2019-01-16T06:21:05.663Z,13.80
2019-01-16T06:23:54.820Z,15.43
2019-01-16T06:26:44.221Z,15.78
2019-01-16T06:29:33.122Z,14.07
2019-01-16T06:32:22.964Z,14.97
2019-01-16T06:35:12.553Z,14.30
2019-01-16T06:38:01.913Z,15.60
2019-01-16T06:40:54.075Z,14.20
2019-01-16T06:43:43.622Z,17.17
2019-01-16T06:46:32.497Z,14.10
2019-01-16T06:49:21.730Z,15.33
2019-01-16T06:52:11.498Z,16.77
2019-01-16T06:55:00.567Z,15.23
2019-01-16T06:57:49.681Z,17.00
2019-01-16T07:00:39.098Z,14.87
2019-01-16T07:03:28.257Z,17.33
2019-01-16T07:06:31.563Z,12.70
2019-01-16T07:09:08.290Z,15.00
2019-01-16T07:11:57.594Z,17.47
2019-01-16T07:14:46.597Z,14.27
2019-01-16T07:17:36.020Z,15.83
2019-01-16T07:20:26.530Z,15.07
2019-01-16T07:23:15.553Z,15.07
2019-01-16T07:26:04.598Z,11.87
2019-01-16T07:28:53.692Z,16.27
2019-01-16T07:31:44.068Z,12.88
2019-01-16T07:34:21.172Z,12.63
2019-01-16T07:37:10.356Z,12.30
2019-01-16T07:39:59.503Z,11.60
2019-01-16T07:42:48.815Z,11.93
2019-01-16T07:45:39.786Z,10.53
2019-01-16T07:48:29.295Z,12.20
2019-01-16T07:51:18.649Z,9.53
2019-01-16T07:54:07.913Z,9.38
2019-01-16T07:56:57.276Z,11.60
2019-01-16T07:59:46.663Z,9.83
2019-01-16T08:02:36.193Z,9.88
2019-01-16T08:05:26.861Z,9.35
2019-01-16T08:08:16.268Z,9.68
2019-01-16T08:11:05.509Z,6.80
2019-01-16T08:13:54.954Z,7.93
2019-01-16T08:19:54.561Z,8.33
2019-01-16T08:22:42.024Z,7.33
2019-01-16T08:25:31.643Z,7.13
2019-01-16T08:28:21.146Z,6.03
2019-01-16T08:31:10.596Z,5.73
2019-01-16T08:34:08.545Z,5.27
2019-01-16T08:36:57.675Z,4.93
2019-01-16T08:39:46.913Z,5.03
2019-01-16T08:42:36.838Z,5.40
2019-01-16T08:45:29.015Z,6.17
2019-01-16T08:48:32.727Z,11.70
2019-01-16T08:51:15.337Z,7.05
2019-01-16T08:54:05.403Z,5.03
2019-01-16T08:56:54.737Z,6.30
2019-01-16T08:59:44.344Z,6.12
2019-01-16T09:02:33.307Z,5.23
2019-01-16T09:05:22.602Z,6.17
2019-01-16T09:08:11.886Z,5.60
2019-01-16T09:11:01.292Z,6.22
2019-01-16T09:13:50.386Z,5.67
2019-01-16T09:16:40.433Z,5.43
2019-01-16T09:19:31.248Z,6.37
2019-01-16T09:22:20.516Z,5.40
2019-01-16T09:25:09.242Z,6.17
2019-01-16T09:27:58.525Z,5.80
2019-01-16T09:30:47.662Z,6.83
2019-01-16T09:33:37.189Z,5.17
2019-01-16T09:36:24.351Z,5.07
2019-01-16T09:39:13.639Z,6.00
2019-01-16T09:42:02.780Z,4.87
2019-01-16T09:44:45.170Z,5.25
2019-01-16T09:47:34.695Z,5.00
2019-01-16T09:50:47.832Z,5.70
2019-01-16T09:53:34.183Z,4.60
2019-01-16T09:56:23.870Z,4.23
2019-01-16T09:59:13.693Z,5.40
2019-01-16T10:02:02.897Z,7.80
2019-01-16T10:04:52.044Z,4.30
2019-01-16T10:07:41.841Z,4.53
2019-01-16T10:10:32.071Z,6.10
2019-01-16T10:13:23.953Z,5.30
2019-01-16T10:16:13.273Z,4.83
2019-01-16T10:19:02.946Z,4.63
2019-01-16T10:21:52.471Z,5.03
2019-01-16T10:24:41.798Z,4.20
2019-01-16T10:27:31.087Z,4.37
2019-01-16T10:30:20.820Z,4.23
2019-01-16T10:33:02.292Z,3.87
2019-01-16T10:35:51.371Z,4.50
2019-01-16T10:38:40.504Z,4.93
2019-01-16T10:41:29.873Z,4.93
2019-01-16T10:44:19.047Z,5.77
2019-01-16T10:47:09.947Z,4.57
2019-01-16T10:49:59.498Z,4.63
2019-01-16T10:52:48.664Z,4.13
2019-01-16T10:58:41.419Z,4.10
2019-01-16T11:01:30.277Z,4.67
2019-01-16T11:04:19.754Z,5.07
2019-01-16T11:07:09.328Z,5.75
2019-01-16T11:09:58.414Z,4.50
2019-01-16T11:13:08.546Z,4.00
2019-01-16T11:15:57.709Z,4.10
2019-01-16T11:18:46.964Z,4.97
2019-01-16T11:21:37.404Z,4.70
2019-01-16T11:27:41.371Z,3.67
2019-01-16T11:30:33.846Z,4.60
2019-01-16T11:33:20.965Z,3.93
2019-01-16T11:36:10.411Z,5.00
2019-01-16T11:38:59.664Z,3.87
2019-01-16T11:41:49.051Z,5.60
2019-01-16T11:44:26.690Z,6.27
2019-01-16T11:47:16.986Z,4.45
2019-01-16T11:50:06.265Z,6.43
2019-01-16T11:52:49.498Z,6.83
2019-01-16T11:55:38.602Z,5.93
2019-01-16T11:58:27.550Z,4.67
2019-01-16T12:01:16.973Z,4.27
2019-01-16T12:04:06.202Z,4.87
2019-01-16T12:06:55.464Z,5.93
2019-01-16T12:09:44.560Z,4.60
2019-01-16T12:12:33.845Z,4.20
2019-01-16T12:18:32.725Z,3.90
2019-01-16T12:21:26.402Z,19.90
2019-01-16T12:24:32.074Z,4.60
2019-01-16T12:27:21.183Z,6.83
2019-01-16T12:30:01.377Z,5.50
2019-01-16T12:32:50.336Z,6.28
2019-01-16T12:35:41.213Z,6.03
2019-01-16T12:38:27.602Z,5.83
2019-01-16T12:41:16.556Z,6.37
2019-01-16T12:44:05.507Z,5.70
2019-01-16T12:46:55.037Z,7.63
2019-01-16T12:49:44.278Z,4.60
2019-01-16T12:52:33.389Z,6.67
2019-01-16T12:55:22.453Z,7.47
2019-01-16T12:58:13.545Z,5.57
2019-01-16T13:00:53.395Z,4.90
2019-01-16T13:06:44.488Z,4.63
2019-01-16T13:12:18.806Z,6.37
2019-01-16T13:14:56.477Z,6.45
2019-01-16T13:17:45.545Z,5.10
2019-01-16T13:20:26.569Z,5.43
2019-01-16T13:23:15.686Z,4.87
2019-01-16T13:26:05.115Z,4.47
2019-01-16T13:28:54.795Z,4.20
2019-01-16T13:31:45.183Z,6.10
2019-01-16T13:37:35.608Z,7.25
2019-01-16T13:40:26.342Z,6.07
2019-01-16T13:43:15.839Z,5.37
2019-01-16T13:46:05.179Z,7.60
2019-01-16T13:48:55.768Z,5.12
2019-01-16T13:51:46.384Z,5.00
2019-01-16T13:54:36.628Z,6.27
2019-01-16T13:57:26.881Z,5.83
2019-01-16T14:00:16.071Z,5.77
2019-01-16T14:03:05.213Z,8.88
2019-01-16T14:05:55.492Z,9.33
2019-01-16T14:08:44.530Z,8.23
2019-01-16T14:11:33.735Z,10.27
2019-01-16T14:14:24.357Z,5.85
2019-01-16T14:17:14.924Z,4.92
2019-01-16T14:20:04.005Z,5.03
2019-01-16T14:23:11.256Z,4.83
2019-01-16T14:26:00.617Z,4.97
2019-01-16T14:28:49.922Z,4.57
2019-01-16T14:31:40.573Z,4.75
2019-01-16T14:34:29.670Z,4.13
2019-01-16T14:37:18.578Z,4.47
2019-01-16T14:40:07.614Z,5.50
2019-01-16T14:42:56.701Z,5.03
2019-01-16T14:45:45.864Z,6.70
2019-01-16T14:48:35.449Z,14.63
2019-01-16T14:54:26.610Z,18.10
2019-01-16T14:57:15.669Z,16.50
2019-01-16T15:00:05.141Z,16.25
2019-01-16T15:02:54.452Z,21.90
2019-01-16T15:05:43.620Z,21.57
2019-01-16T15:08:32.687Z,26.60
2019-01-16T15:11:22.404Z,31.10
2019-01-16T15:14:11.403Z,25.37
2019-01-16T15:17:01.148Z,18.17
2019-01-16T15:19:50.307Z,19.80
2019-01-16T15:22:39.423Z,21.67
2019-01-16T15:25:29.008Z,21.20
2019-01-16T15:31:04.398Z,18.90
2019-01-16T15:33:55.009Z,21.87
2019-01-16T15:36:44.483Z,34.40
2019-01-16T15:39:33.617Z,189.70
2019-01-16T15:42:22.754Z,213.70
2019-01-16T15:45:11.959Z,72.92
2019-01-16T15:48:01.470Z,23.90
2019-01-16T15:50:51.084Z,45.90
2019-01-16T15:53:40.476Z,85.50
2019-01-16T16:02:38.670Z,36.27
2019-01-16T16:05:28.242Z,23.60
2019-01-16T16:08:17.845Z,19.50
2019-01-16T16:11:07.006Z,22.83
2019-01-16T16:13:50.631Z,24.52
2019-01-16T16:16:39.774Z,18.80
2019-01-16T16:19:29.415Z,15.15
2019-01-16T16:22:19.399Z,8.97
2019-01-16T16:25:09.211Z,10.93
2019-01-16T16:27:58.394Z,7.97
2019-01-16T16:30:47.446Z,11.30
2019-01-16T16:33:36.369Z,9.63
2019-01-16T16:36:25.606Z,14.37
2019-01-16T16:39:14.850Z,8.10
2019-01-16T16:42:19.620Z,12.60
2019-01-16T16:45:08.592Z,13.90
2019-01-16T16:47:57.723Z,22.53
2019-01-16T16:50:46.950Z,16.17
2019-01-16T17:01:51.855Z,22.37
2019-01-16T17:04:41.965Z,24.97
2019-01-16T17:07:31.745Z,21.07
2019-01-16T17:10:21.340Z,19.65
2019-01-16T17:13:10.693Z,19.20
2019-01-16T17:15:59.694Z,21.63
2019-01-16T17:21:44.762Z,103.00
2019-01-16T17:24:34.149Z,118.72
2019-01-16T17:30:06.717Z,17.70
2019-01-16T17:32:55.963Z,14.25
2019-01-16T17:35:45.262Z,12.60
2019-01-16T17:38:34.453Z,13.67
2019-01-16T17:41:14.475Z,16.30
2019-01-16T17:44:03.855Z,16.30
2019-01-16T17:46:53.493Z,11.30
2019-01-16T17:49:43.471Z,10.40
2019-01-16T17:55:32.366Z,9.10
2019-01-16T17:58:21.783Z,7.17
2019-01-16T18:04:11.221Z,9.53
2019-01-16T18:07:00.410Z,6.60
2019-01-16T18:09:49.505Z,10.50
2019-01-16T18:12:38.525Z,9.43
2019-01-16T18:15:29.170Z,10.23
2019-01-16T18:18:18.363Z,8.10
2019-01-16T18:21:07.506Z,8.63
2019-01-16T18:23:45.624Z,5.73
2019-01-16T18:26:26.860Z,7.53
2019-01-16T18:29:15.932Z,10.90
2019-01-16T18:32:05.293Z,9.03
2019-01-16T18:34:55.395Z,9.43
2019-01-16T18:37:44.576Z,11.80
2019-01-16T18:40:34.084Z,12.30
2019-01-16T18:43:23.741Z,12.30
2019-01-16T18:46:13.072Z,14.98
2019-01-16T18:49:03.684Z,12.00
2019-01-16T18:51:53.286Z,11.08
2019-01-16T18:54:43.895Z,14.43
2019-01-16T18:57:33.388Z,14.90
2019-01-16T19:00:22.548Z,13.47
2019-01-16T19:03:11.481Z,31.33
2019-01-16T19:06:00.489Z,47.37
2019-01-16T19:08:49.538Z,24.77
2019-01-16T19:11:38.581Z,23.23
2019-01-16T19:14:27.637Z,20.97
2019-01-16T19:17:16.770Z,23.23
2019-01-16T19:20:06.206Z,22.55
2019-01-16T19:22:58.190Z,19.57
2019-01-16T19:25:46.419Z,19.53
2019-01-16T19:28:35.475Z,16.63
2019-01-16T19:31:24.613Z,18.10
2019-01-16T19:34:13.679Z,24.70
2019-01-16T19:37:03.000Z,19.77
2019-01-16T19:39:53.229Z,29.63
2019-01-16T19:42:42.824Z,25.50
2019-01-16T19:45:31.772Z,30.12
2019-01-16T19:48:18.024Z,25.05
2019-01-16T19:51:07.908Z,20.47
2019-01-16T19:53:57.536Z,21.60
2019-01-16T19:56:46.758Z,20.00
2019-01-16T19:59:36.388Z,22.48
2019-01-16T20:05:45.473Z,30.80
2019-01-16T20:08:36.624Z,27.47
2019-01-16T20:11:25.792Z,24.73
2019-01-16T20:14:15.213Z,22.90
2019-01-16T20:17:04.619Z,27.07
2019-01-16T20:19:53.720Z,22.77
2019-01-16T20:22:43.178Z,23.54
2019-01-16T20:25:32.615Z,35.73
2019-01-16T20:28:21.877Z,55.20
2019-01-16T20:31:11.253Z,42.00
2019-01-16T20:34:20.506Z,51.33
2019-01-16T20:36:58.868Z,101.80
2019-01-16T20:39:48.269Z,76.23
2019-01-16T20:42:37.876Z,45.13
2019-01-16T20:45:27.506Z,22.17
2019-01-16T20:48:16.495Z,20.60
2019-01-16T20:51:05.803Z,17.90
2019-01-16T20:53:55.517Z,18.83
2019-01-16T20:56:44.648Z,22.47
2019-01-16T20:59:34.076Z,23.12
2019-01-16T21:02:16.151Z,24.10
2019-01-16T21:05:02.452Z,21.33
2019-01-16T21:07:51.524Z,24.40
2019-01-16T21:10:40.843Z,22.07
2019-01-16T21:13:30.179Z,20.70
2019-01-16T21:16:06.735Z,16.83
2019-01-16T21:18:49.200Z,18.70
2019-01-16T21:21:38.501Z,27.27
2019-01-16T21:24:27.739Z,20.33
2019-01-16T21:27:19.404Z,22.60
2019-01-16T21:30:08.727Z,36.97
2019-01-16T21:32:58.305Z,33.73
2019-01-16T21:35:47.888Z,60.77
2019-01-16T21:38:37.373Z,39.35
2019-01-16T21:41:26.607Z,26.13
2019-01-16T21:44:15.690Z,25.87
2019-01-16T21:47:07.627Z,24.45
2019-01-16T21:49:56.661Z,26.50
2019-01-16T21:52:45.687Z,21.60
2019-01-16T21:55:37.511Z,25.23
2019-01-16T21:58:26.557Z,21.60
2019-01-16T22:01:15.619Z,21.80
2019-01-16T22:04:03.158Z,24.87
2019-01-16T22:06:52.797Z,22.07
2019-01-16T22:09:43.652Z,24.50
2019-01-16T22:12:33.303Z,24.70
2019-01-16T22:18:06.337Z,24.60
2019-01-16T22:20:57.258Z,22.00
2019-01-16T22:23:47.756Z,20.77
2019-01-16T22:26:39.483Z,21.70
2019-01-16T22:29:28.672Z,26.13
2019-01-16T22:32:17.828Z,20.37
2019-01-16T22:35:07.087Z,21.48
2019-01-16T22:37:56.525Z,20.10
2019-01-16T22:40:45.640Z,19.20
2019-01-16T22:43:34.556Z,20.53
2019-01-16T22:46:23.701Z,37.20
2019-01-16T22:49:12.880Z,55.45
2019-01-16T22:52:02.339Z,42.30
2019-01-16T22:54:52.384Z,43.00
2019-01-16T22:57:41.657Z,39.67
2019-01-16T23:03:46.553Z,20.43
2019-01-16T23:06:35.542Z,18.00
2019-01-16T23:12:26.744Z,20.67
2019-01-16T23:15:16.112Z,19.70
2019-01-16T23:18:05.252Z,18.60
2019-01-16T23:20:54.410Z,18.53
2019-01-16T23:23:49.633Z,17.07
2019-01-16T23:26:34.632Z,15.97
2019-01-16T23:29:25.076Z,17.70
2019-01-16T23:32:14.291Z,19.80
2019-01-16T23:35:03.379Z,20.27
2019-01-16T23:38:11.545Z,22.23
2019-01-16T23:41:00.558Z,19.55
2019-01-16T23:43:51.782Z,17.03
2019-01-16T23:46:41.585Z,19.20
2019-01-16T23:49:30.715Z,19.20
2019-01-16T23:52:11.017Z,20.25
2019-01-16T23:55:00.170Z,17.63
2019-01-16T23:57:49.302Z,16.97
